SVA596 OERK-OMDB
Flight info
| Callsign | SVA596 |
|---|---|
| Flight time | 1h 30m |
| Altitude | 39000 |
| Route | RESAL T533 RAPMA DCT KUVSO DCT RIBOT M550 GOLGU M318 ATUDO/N0489F350 M318 RURAL Q317 LORID |
| Aircraft | A333/H-SDE3GHIJ2J3J5M1RVWXY/LB2D1 |
Departure
| Time | 2026-05-07 13:27 |
|---|---|
| Airport | King Khalid International Airport (OERK) |
Arrival
| Time | 2026-05-07 14:58 |
|---|---|
| Airport | Dubai International Airport (OMDB) |
| Time | Latitude | Longitude | Altitude | Speed | Heading |
|---|---|---|---|---|---|
| 2026-05-07 12:44 | 24.95527 | 46.70670 | 2044 ft | 0 kts | 312° |
| 2026-05-07 13:15 | 24.95518 | 46.70681 | 2042 ft | 3 kts | 306° |
| 2026-05-07 13:15 | 24.95504 | 46.70703 | 2040 ft | 4 kts | 308° |
| 2026-05-07 13:16 | 24.95491 | 46.70720 | 2042 ft | 3 kts | 292° |
| 2026-05-07 13:16 | 24.95491 | 46.70740 | 2041 ft | 4 kts | 233° |
| 2026-05-07 13:16 | 24.95507 | 46.70760 | 2040 ft | 4 kts | 226° |
| 2026-05-07 13:16 | 24.95520 | 46.70778 | 2044 ft | 2 kts | 240° |
| 2026-05-07 13:17 | 24.95531 | 46.70800 | 2044 ft | 4 kts | 248° |
| 2026-05-07 13:17 | 24.95539 | 46.70825 | 2043 ft | 4 kts | 258° |
| 2026-05-07 13:17 | 24.95542 | 46.70852 | 2040 ft | 4 kts | 270° |
| 2026-05-07 13:17 | 24.95540 | 46.70878 | 2042 ft | 4 kts | 285° |
| 2026-05-07 13:18 | 24.95531 | 46.70902 | 2044 ft | 4 kts | 308° |
| 2026-05-07 13:18 | 24.95518 | 46.70916 | 2040 ft | 0 kts | 333° |
| 2026-05-07 13:21 | 24.95523 | 46.70913 | 2040 ft | 3 kts | 331° |
| 2026-05-07 13:21 | 24.95570 | 46.70882 | 2037 ft | 13 kts | 329° |
| 2026-05-07 13:21 | 24.95660 | 46.70823 | 2042 ft | 17 kts | 329° |
| 2026-05-07 13:21 | 24.95763 | 46.70758 | 2042 ft | 17 kts | 330° |
| 2026-05-07 13:22 | 24.95862 | 46.70774 | 2042 ft | 16 kts | 52° |
| 2026-05-07 13:22 | 24.95918 | 46.70881 | 2041 ft | 16 kts | 60° |
| 2026-05-07 13:22 | 24.96015 | 46.70914 | 2040 ft | 17 kts | 339° |
| 2026-05-07 13:22 | 24.96126 | 46.70846 | 2042 ft | 19 kts | 329° |
| 2026-05-07 13:23 | 24.96241 | 46.70773 | 2043 ft | 19 kts | 330° |
| 2026-05-07 13:23 | 24.96361 | 46.70697 | 2041 ft | 20 kts | 329° |
| 2026-05-07 13:23 | 24.96484 | 46.70618 | 2040 ft | 21 kts | 329° |
| 2026-05-07 13:23 | 24.96617 | 46.70534 | 2039 ft | 24 kts | 330° |
| 2026-05-07 13:24 | 24.96769 | 46.70438 | 2041 ft | 26 kts | 330° |
| 2026-05-07 13:24 | 24.96928 | 46.70338 | 2042 ft | 27 kts | 330° |
| 2026-05-07 13:24 | 24.97090 | 46.70237 | 2038 ft | 27 kts | 330° |
| 2026-05-07 13:24 | 24.97255 | 46.70135 | 2042 ft | 27 kts | 328° |
| 2026-05-07 13:25 | 24.97419 | 46.70027 | 2038 ft | 25 kts | 330° |
| 2026-05-07 13:25 | 24.97523 | 46.69979 | 2034 ft | 15 kts | 7° |
| 2026-05-07 13:25 | 24.97592 | 46.70061 | 2042 ft | 15 kts | 60° |
| 2026-05-07 13:25 | 24.97621 | 46.70170 | 2038 ft | 15 kts | 94° |
| 2026-05-07 13:26 | 24.97572 | 46.70270 | 2040 ft | 16 kts | 141° |
| 2026-05-07 13:26 | 24.97410 | 46.70376 | 2040 ft | 47 kts | 149° |
| 2026-05-07 13:26 | 24.96965 | 46.70660 | 2041 ft | 102 kts | 150° |
| 2026-05-07 13:26 | 24.96192 | 46.71146 | 2044 ft | 153 kts | 150° |
| 2026-05-07 13:27 | 24.95133 | 46.71800 | 2263 ft | 186 kts | 148° |
| 2026-05-07 13:27 | 24.93982 | 46.72474 | 3051 ft | 186 kts | 146° |
| 2026-05-07 13:27 | 24.92861 | 46.73159 | 3933 ft | 185 kts | 147° |
| 2026-05-07 13:27 | 24.91773 | 46.73857 | 4859 ft | 177 kts | 148° |
| 2026-05-07 13:28 | 24.90815 | 46.74757 | 5434 ft | 191 kts | 133° |
| 2026-05-07 13:28 | 24.89878 | 46.75902 | 5910 ft | 206 kts | 135° |
| 2026-05-07 13:28 | 24.88868 | 46.77049 | 6572 ft | 212 kts | 137° |
| 2026-05-07 13:28 | 24.87755 | 46.78170 | 7160 ft | 220 kts | 145° |
| 2026-05-07 13:29 | 24.86584 | 46.79006 | 7725 ft | 226 kts | 152° |
| 2026-05-07 13:29 | 24.85198 | 46.79843 | 8332 ft | 235 kts | 154° |
| 2026-05-07 13:29 | 24.83721 | 46.80696 | 9002 ft | 242 kts | 155° |
| 2026-05-07 13:29 | 24.82217 | 46.81557 | 9755 ft | 246 kts | 156° |
| 2026-05-07 13:30 | 24.80691 | 46.82429 | 10443 ft | 249 kts | 156° |
| 2026-05-07 13:30 | 24.79098 | 46.83212 | 11131 ft | 251 kts | 164° |
| 2026-05-07 13:30 | 24.77412 | 46.83755 | 11831 ft | 253 kts | 168° |
| 2026-05-07 13:30 | 24.75692 | 46.84237 | 12538 ft | 257 kts | 168° |
| 2026-05-07 13:31 | 24.73938 | 46.84719 | 13210 ft | 261 kts | 168° |
| 2026-05-07 13:31 | 24.72156 | 46.85208 | 13857 ft | 266 kts | 168° |
| 2026-05-07 13:31 | 24.70365 | 46.85701 | 14454 ft | 270 kts | 169° |
| 2026-05-07 13:31 | 24.68531 | 46.86208 | 15066 ft | 274 kts | 169° |
| 2026-05-07 13:32 | 24.66670 | 46.86724 | 15686 ft | 277 kts | 169° |
| 2026-05-07 13:32 | 24.64788 | 46.87246 | 16288 ft | 281 kts | 169° |
| 2026-05-07 13:32 | 24.62897 | 46.87843 | 16875 ft | 286 kts | 166° |
| 2026-05-07 13:32 | 24.60987 | 46.88546 | 17477 ft | 290 kts | 165° |
| 2026-05-07 13:33 | 24.59065 | 46.89276 | 18035 ft | 296 kts | 165° |
| 2026-05-07 13:33 | 24.57074 | 46.90034 | 18292 ft | 311 kts | 165° |
| 2026-05-07 13:33 | 24.54975 | 46.90833 | 18509 ft | 327 kts | 164° |
| 2026-05-07 13:33 | 24.52801 | 46.91661 | 18737 ft | 342 kts | 164° |
| 2026-05-07 13:34 | 24.50502 | 46.92538 | 18948 ft | 356 kts | 164° |
| 2026-05-07 13:34 | 24.45627 | 46.94395 | 19413 ft | 384 kts | 164° |
| 2026-05-07 13:34 | 24.43089 | 46.95362 | 19633 ft | 397 kts | 163° |
| 2026-05-07 13:35 | 24.40436 | 46.96372 | 19843 ft | 409 kts | 163° |
| 2026-05-07 13:35 | 24.37711 | 46.97408 | 20058 ft | 419 kts | 163° |
| 2026-05-07 13:35 | 24.34927 | 46.98468 | 20370 ft | 426 kts | 163° |
| 2026-05-07 13:35 | 24.32111 | 46.99540 | 20799 ft | 429 kts | 163° |
| 2026-05-07 13:36 | 24.29282 | 47.00616 | 21267 ft | 431 kts | 163° |
| 2026-05-07 13:36 | 24.26437 | 47.01697 | 21730 ft | 433 kts | 163° |
| 2026-05-07 13:36 | 24.23581 | 47.02781 | 22177 ft | 435 kts | 163° |
| 2026-05-07 13:36 | 24.20710 | 47.03869 | 22636 ft | 437 kts | 163° |
| 2026-05-07 13:37 | 24.17864 | 47.04948 | 23103 ft | 439 kts | 163° |
| 2026-05-07 13:37 | 24.14960 | 47.06048 | 23415 ft | 445 kts | 163° |
| 2026-05-07 13:37 | 24.12044 | 47.07250 | 23733 ft | 450 kts | 158° |
| 2026-05-07 13:37 | 24.09256 | 47.08853 | 24108 ft | 454 kts | 152° |
| 2026-05-07 13:38 | 24.06568 | 47.10657 | 24476 ft | 457 kts | 150° |
| 2026-05-07 13:38 | 24.03870 | 47.12517 | 24824 ft | 459 kts | 150° |
| 2026-05-07 13:38 | 24.01162 | 47.14385 | 25184 ft | 461 kts | 151° |
| 2026-05-07 13:38 | 23.98443 | 47.16256 | 25529 ft | 463 kts | 151° |
| 2026-05-07 13:39 | 23.95704 | 47.18135 | 25863 ft | 466 kts | 151° |
| 2026-05-07 13:39 | 23.92943 | 47.20027 | 26159 ft | 470 kts | 152° |
| 2026-05-07 13:39 | 23.90165 | 47.21929 | 26481 ft | 472 kts | 152° |
| 2026-05-07 13:39 | 23.87374 | 47.23838 | 26852 ft | 474 kts | 152° |
| 2026-05-07 13:40 | 23.84573 | 47.25753 | 27205 ft | 476 kts | 152° |
| 2026-05-07 13:40 | 23.81756 | 47.27677 | 27546 ft | 478 kts | 152° |
| 2026-05-07 13:40 | 23.78932 | 47.29605 | 27853 ft | 480 kts | 152° |
| 2026-05-07 13:40 | 23.76088 | 47.31545 | 28104 ft | 484 kts | 152° |
| 2026-05-07 13:41 | 23.73252 | 47.33478 | 28417 ft | 487 kts | 153° |
| 2026-05-07 13:41 | 23.70370 | 47.35443 | 28737 ft | 489 kts | 153° |
| 2026-05-07 13:41 | 23.67476 | 47.37415 | 29052 ft | 491 kts | 153° |
| 2026-05-07 13:41 | 23.64570 | 47.39394 | 29364 ft | 492 kts | 153° |
| 2026-05-07 13:42 | 23.61664 | 47.41371 | 29710 ft | 493 kts | 153° |
| 2026-05-07 13:42 | 23.58742 | 47.43359 | 30011 ft | 495 kts | 153° |
| 2026-05-07 13:42 | 23.55826 | 47.45343 | 30325 ft | 494 kts | 153° |
| 2026-05-07 13:42 | 23.53017 | 47.47465 | 30688 ft | 498 kts | 146° |
| 2026-05-07 13:43 | 23.50467 | 47.50060 | 31044 ft | 504 kts | 137° |
| 2026-05-07 13:43 | 23.48337 | 47.53127 | 31403 ft | 511 kts | 126° |
| 2026-05-07 13:43 | 23.46713 | 47.56604 | 31750 ft | 518 kts | 116° |
| 2026-05-07 13:43 | 23.45672 | 47.60383 | 32080 ft | 525 kts | 105° |
| 2026-05-07 13:44 | 23.45147 | 47.64328 | 32430 ft | 527 kts | 100° |
| 2026-05-07 13:44 | 23.44763 | 47.68306 | 32740 ft | 527 kts | 99° |
| 2026-05-07 13:44 | 23.44401 | 47.72217 | 33163 ft | 525 kts | 99° |
| 2026-05-07 13:44 | 23.44029 | 47.76165 | 33536 ft | 524 kts | 99° |
| 2026-05-07 13:45 | 23.43648 | 47.80114 | 33855 ft | 523 kts | 99° |
| 2026-05-07 13:45 | 23.43262 | 47.84067 | 34136 ft | 523 kts | 99° |
| 2026-05-07 13:45 | 23.42873 | 47.88005 | 34414 ft | 523 kts | 100° |
| 2026-05-07 13:45 | 23.42482 | 47.91946 | 34687 ft | 522 kts | 100° |
| 2026-05-07 13:46 | 23.42090 | 47.95878 | 34969 ft | 522 kts | 100° |
| 2026-05-07 13:46 | 23.41697 | 47.99807 | 35258 ft | 521 kts | 100° |
| 2026-05-07 13:46 | 23.41308 | 48.03685 | 35514 ft | 522 kts | 100° |
| 2026-05-07 13:46 | 23.40913 | 48.07610 | 35737 ft | 522 kts | 100° |
| 2026-05-07 13:47 | 23.40516 | 48.11541 | 36002 ft | 522 kts | 100° |
| 2026-05-07 13:47 | 23.40118 | 48.15474 | 36263 ft | 521 kts | 100° |
| 2026-05-07 13:47 | 23.39719 | 48.19409 | 36524 ft | 521 kts | 100° |
| 2026-05-07 13:47 | 23.39319 | 48.23342 | 36748 ft | 521 kts | 100° |
| 2026-05-07 13:48 | 23.38921 | 48.27252 | 37046 ft | 519 kts | 100° |
| 2026-05-07 13:48 | 23.38385 | 48.31125 | 37321 ft | 515 kts | 107° |
| 2026-05-07 13:48 | 23.37375 | 48.34785 | 37541 ft | 509 kts | 117° |
| 2026-05-07 13:48 | 23.35820 | 48.38216 | 37755 ft | 502 kts | 125° |
| 2026-05-07 13:49 | 23.34041 | 48.41480 | 37988 ft | 500 kts | 127° |
| 2026-05-07 13:49 | 23.32182 | 48.44683 | 38229 ft | 499 kts | 128° |
| 2026-05-07 13:49 | 23.30292 | 48.47849 | 38415 ft | 499 kts | 128° |
| 2026-05-07 13:49 | 23.28393 | 48.51010 | 38603 ft | 499 kts | 128° |
| 2026-05-07 13:50 | 23.26495 | 48.54180 | 38760 ft | 500 kts | 128° |
| 2026-05-07 13:50 | 23.22719 | 48.60544 | 38789 ft | 500 kts | 128° |
| 2026-05-07 13:51 | 23.18974 | 48.66907 | 38788 ft | 499 kts | 128° |
| 2026-05-07 13:51 | 23.15231 | 48.73271 | 38787 ft | 500 kts | 128° |
| 2026-05-07 13:52 | 23.11501 | 48.79604 | 38784 ft | 500 kts | 128° |
| 2026-05-07 13:52 | 23.07752 | 48.85961 | 38781 ft | 499 kts | 127° |
| 2026-05-07 13:53 | 23.04008 | 48.92302 | 38284 ft | 498 kts | 127° |
| 2026-05-07 13:53 | 23.02165 | 48.95491 | 37740 ft | 498 kts | 124° |
| 2026-05-07 13:53 | 23.00660 | 48.98896 | 37193 ft | 503 kts | 115° |
| 2026-05-07 13:53 | 22.99666 | 49.02555 | 36614 ft | 508 kts | 104° |
| 2026-05-07 13:54 | 22.99183 | 49.06369 | 36032 ft | 510 kts | 99° |
| 2026-05-07 13:54 | 22.98969 | 49.08910 | 35649 ft | 511 kts | 97° |
| 2026-05-07 13:54 | 22.98730 | 49.12756 | 35107 ft | 512 kts | 96° |
| 2026-05-07 13:54 | 22.98484 | 49.17884 | 34804 ft | 516 kts | 95° |
| 2026-05-07 13:55 | 22.98306 | 49.21789 | 34777 ft | 519 kts | 95° |
| 2026-05-07 13:55 | 22.97985 | 49.28356 | 34770 ft | 519 kts | 96° |
| 2026-05-07 13:56 | 22.97566 | 49.36166 | 34772 ft | 518 kts | 96° |
| 2026-05-07 13:56 | 22.97124 | 49.43969 | 34772 ft | 518 kts | 96° |
| 2026-05-07 13:57 | 22.96678 | 49.51725 | 34772 ft | 518 kts | 96° |
| 2026-05-07 13:57 | 22.96227 | 49.59531 | 34771 ft | 518 kts | 96° |
| 2026-05-07 13:58 | 22.95772 | 49.67354 | 34772 ft | 518 kts | 96° |
| 2026-05-07 13:58 | 22.95314 | 49.75155 | 34768 ft | 518 kts | 96° |
| 2026-05-07 13:59 | 22.94853 | 49.82951 | 34768 ft | 518 kts | 96° |
| 2026-05-07 13:59 | 22.94392 | 49.90700 | 34768 ft | 518 kts | 96° |
| 2026-05-07 14:00 | 22.93923 | 49.98501 | 34766 ft | 516 kts | 96° |
| 2026-05-07 14:00 | 22.93452 | 50.06272 | 34773 ft | 515 kts | 96° |
| 2026-05-07 14:01 | 22.92978 | 50.14037 | 34773 ft | 515 kts | 96° |
| 2026-05-07 14:01 | 22.92500 | 50.21796 | 34770 ft | 515 kts | 96° |
| 2026-05-07 14:02 | 22.92021 | 50.29510 | 34773 ft | 515 kts | 96° |
| 2026-05-07 14:02 | 22.91534 | 50.37288 | 34770 ft | 516 kts | 96° |
| 2026-05-07 14:03 | 22.91045 | 50.45055 | 34764 ft | 515 kts | 96° |
| 2026-05-07 14:03 | 22.90554 | 50.52771 | 34765 ft | 515 kts | 96° |
| 2026-05-07 14:04 | 22.90058 | 50.60524 | 34759 ft | 515 kts | 96° |
| 2026-05-07 14:04 | 22.89558 | 50.68269 | 34769 ft | 513 kts | 96° |
| 2026-05-07 14:05 | 22.89055 | 50.75991 | 34766 ft | 512 kts | 96° |
| 2026-05-07 14:05 | 22.88553 | 50.83652 | 34764 ft | 512 kts | 96° |
| 2026-05-07 14:06 | 22.88042 | 50.91384 | 34763 ft | 512 kts | 95° |
| 2026-05-07 14:06 | 22.87532 | 50.99059 | 34761 ft | 512 kts | 95° |
| 2026-05-07 14:07 | 22.87016 | 51.06773 | 34759 ft | 512 kts | 95° |
| 2026-05-07 14:07 | 22.86496 | 51.14479 | 34762 ft | 512 kts | 96° |
| 2026-05-07 14:08 | 22.85972 | 51.22181 | 34761 ft | 512 kts | 96° |
| 2026-05-07 14:08 | 22.85447 | 51.29834 | 34759 ft | 512 kts | 96° |
| 2026-05-07 14:09 | 22.84915 | 51.37539 | 34760 ft | 512 kts | 96° |
| 2026-05-07 14:09 | 22.84716 | 51.45254 | 34762 ft | 513 kts | 85° |
| 2026-05-07 14:10 | 22.86347 | 51.52779 | 34757 ft | 514 kts | 72° |
| 2026-05-07 14:10 | 22.88648 | 51.60113 | 34755 ft | 514 kts | 70° |
| 2026-05-07 14:11 | 22.91065 | 51.67414 | 34761 ft | 514 kts | 70° |
| 2026-05-07 14:11 | 22.93459 | 51.74718 | 34758 ft | 513 kts | 70° |
| 2026-05-07 14:12 | 22.95808 | 51.81985 | 34755 ft | 513 kts | 70° |
| 2026-05-07 14:12 | 22.98158 | 51.89308 | 34755 ft | 514 kts | 71° |
| 2026-05-07 14:13 | 23.00505 | 51.96639 | 34763 ft | 514 kts | 71° |
| 2026-05-07 14:13 | 23.02576 | 52.03115 | 34757 ft | 514 kts | 71° |
| 2026-05-07 14:14 | 23.04391 | 52.08807 | 34757 ft | 514 kts | 71° |
| 2026-05-07 14:14 | 23.06717 | 52.16096 | 34759 ft | 514 kts | 71° |
| 2026-05-07 14:15 | 23.09058 | 52.23444 | 34755 ft | 514 kts | 71° |
| 2026-05-07 14:15 | 23.11390 | 52.30781 | 34768 ft | 514 kts | 71° |
| 2026-05-07 14:16 | 23.13716 | 52.38114 | 34775 ft | 513 kts | 71° |
| 2026-05-07 14:16 | 23.16041 | 52.45453 | 34763 ft | 512 kts | 71° |
| 2026-05-07 14:17 | 23.18064 | 52.52818 | 34757 ft | 512 kts | 79° |
| 2026-05-07 14:17 | 23.19206 | 52.60457 | 34757 ft | 512 kts | 82° |
| 2026-05-07 14:18 | 23.20166 | 52.68130 | 34762 ft | 512 kts | 83° |
| 2026-05-07 14:18 | 23.21097 | 52.75818 | 34763 ft | 512 kts | 83° |
| 2026-05-07 14:19 | 23.22037 | 52.83496 | 34774 ft | 512 kts | 83° |
| 2026-05-07 14:19 | 23.22987 | 52.91179 | 34775 ft | 512 kts | 82° |
| 2026-05-07 14:20 | 23.23936 | 52.98863 | 34765 ft | 512 kts | 82° |
| 2026-05-07 14:20 | 23.24874 | 53.06492 | 34775 ft | 512 kts | 82° |
| 2026-05-07 14:21 | 23.25814 | 53.14174 | 34775 ft | 512 kts | 83° |
| 2026-05-07 14:21 | 23.26750 | 53.21854 | 34772 ft | 512 kts | 83° |
| 2026-05-07 14:22 | 23.27682 | 53.29537 | 34769 ft | 512 kts | 83° |
| 2026-05-07 14:22 | 23.28610 | 53.37223 | 34777 ft | 513 kts | 83° |
| 2026-05-07 14:23 | 23.29536 | 53.44928 | 34778 ft | 513 kts | 83° |
| 2026-05-07 14:23 | 23.30452 | 53.52572 | 34777 ft | 513 kts | 83° |
| 2026-05-07 14:24 | 23.31371 | 53.60272 | 34774 ft | 513 kts | 83° |
| 2026-05-07 14:24 | 23.32289 | 53.67998 | 34770 ft | 513 kts | 83° |
| 2026-05-07 14:25 | 23.33194 | 53.75638 | 34774 ft | 513 kts | 83° |
| 2026-05-07 14:25 | 23.34102 | 53.83352 | 34776 ft | 513 kts | 83° |
| 2026-05-07 14:26 | 23.35001 | 53.91012 | 34776 ft | 513 kts | 83° |
| 2026-05-07 14:26 | 23.35902 | 53.98724 | 34776 ft | 513 kts | 83° |
| 2026-05-07 14:27 | 23.36798 | 54.06428 | 34774 ft | 513 kts | 83° |
| 2026-05-07 14:27 | 23.37691 | 54.14139 | 34776 ft | 512 kts | 83° |
| 2026-05-07 14:28 | 23.38570 | 54.21761 | 34774 ft | 511 kts | 83° |
| 2026-05-07 14:28 | 23.39451 | 54.29435 | 34770 ft | 510 kts | 83° |
| 2026-05-07 14:29 | 23.40327 | 54.37099 | 34778 ft | 510 kts | 83° |
| 2026-05-07 14:29 | 23.41201 | 54.44775 | 34778 ft | 510 kts | 83° |
| 2026-05-07 14:30 | 23.42071 | 54.52443 | 34748 ft | 511 kts | 83° |
| 2026-05-07 14:30 | 23.42504 | 54.56278 | 34533 ft | 511 kts | 83° |
| 2026-05-07 14:30 | 23.42937 | 54.60124 | 34306 ft | 511 kts | 83° |
| 2026-05-07 14:30 | 23.43369 | 54.63963 | 34082 ft | 512 kts | 83° |
| 2026-05-07 14:31 | 23.43801 | 54.67816 | 33859 ft | 512 kts | 83° |
| 2026-05-07 14:31 | 23.44229 | 54.71640 | 33646 ft | 502 kts | 83° |
| 2026-05-07 14:31 | 23.44654 | 54.75441 | 33381 ft | 510 kts | 83° |
| 2026-05-07 14:31 | 23.45083 | 54.79293 | 33129 ft | 514 kts | 83° |
| 2026-05-07 14:32 | 23.45512 | 54.83157 | 32863 ft | 515 kts | 83° |
| 2026-05-07 14:32 | 23.45937 | 54.86984 | 32628 ft | 515 kts | 83° |
| 2026-05-07 14:32 | 23.46366 | 54.90866 | 32378 ft | 516 kts | 83° |
| 2026-05-07 14:32 | 23.46795 | 54.94743 | 32140 ft | 516 kts | 83° |
| 2026-05-07 14:33 | 23.47223 | 54.98636 | 31900 ft | 517 kts | 83° |
| 2026-05-07 14:33 | 23.47652 | 55.02533 | 31657 ft | 518 kts | 83° |
| 2026-05-07 14:33 | 23.48079 | 55.06431 | 31360 ft | 518 kts | 83° |
| 2026-05-07 14:33 | 23.48506 | 55.10337 | 31010 ft | 519 kts | 83° |
| 2026-05-07 14:34 | 23.48927 | 55.14192 | 30666 ft | 520 kts | 83° |
| 2026-05-07 14:34 | 23.49358 | 55.18153 | 30270 ft | 520 kts | 83° |
| 2026-05-07 14:34 | 23.49779 | 55.22027 | 29889 ft | 521 kts | 83° |
| 2026-05-07 14:34 | 23.50214 | 55.25944 | 29416 ft | 521 kts | 81° |
| 2026-05-07 14:35 | 23.51046 | 55.29780 | 28958 ft | 517 kts | 70° |
| 2026-05-07 14:35 | 23.52490 | 55.33330 | 28476 ft | 510 kts | 59° |
| 2026-05-07 14:35 | 23.54541 | 55.36445 | 28010 ft | 502 kts | 46° |
| 2026-05-07 14:35 | 23.57115 | 55.38978 | 27564 ft | 494 kts | 34° |
| 2026-05-07 14:36 | 23.60030 | 55.40804 | 27128 ft | 487 kts | 21° |
| 2026-05-07 14:36 | 23.63198 | 55.42047 | 26690 ft | 481 kts | 16° |
| 2026-05-07 14:36 | 23.66395 | 55.43080 | 26261 ft | 478 kts | 14° |
| 2026-05-07 14:36 | 23.69596 | 55.44014 | 25842 ft | 474 kts | 13° |
| 2026-05-07 14:37 | 23.72786 | 55.44909 | 25416 ft | 471 kts | 13° |
| 2026-05-07 14:37 | 23.79082 | 55.46687 | 24599 ft | 464 kts | 14° |
| 2026-05-07 14:37 | 23.82198 | 55.47589 | 24204 ft | 461 kts | 14° |
| 2026-05-07 14:38 | 23.85284 | 55.48495 | 23807 ft | 458 kts | 14° |
| 2026-05-07 14:38 | 23.88358 | 55.49404 | 23422 ft | 455 kts | 14° |
| 2026-05-07 14:38 | 23.91406 | 55.50309 | 23014 ft | 452 kts | 14° |
| 2026-05-07 14:38 | 23.94429 | 55.51208 | 22633 ft | 449 kts | 15° |
| 2026-05-07 14:39 | 23.97428 | 55.52125 | 22249 ft | 446 kts | 18° |
| 2026-05-07 14:39 | 24.00287 | 55.53415 | 21923 ft | 444 kts | 27° |
| 2026-05-07 14:39 | 24.02887 | 55.55217 | 21615 ft | 442 kts | 36° |
| 2026-05-07 14:39 | 24.05286 | 55.57298 | 21328 ft | 439 kts | 40° |
| 2026-05-07 14:40 | 24.07559 | 55.59459 | 21041 ft | 437 kts | 41° |
| 2026-05-07 14:40 | 24.09808 | 55.61699 | 20739 ft | 435 kts | 42° |
| 2026-05-07 14:40 | 24.12025 | 55.63948 | 20461 ft | 433 kts | 43° |
| 2026-05-07 14:40 | 24.14234 | 55.66191 | 20176 ft | 431 kts | 43° |
| 2026-05-07 14:41 | 24.16433 | 55.68411 | 19894 ft | 429 kts | 43° |
| 2026-05-07 14:41 | 24.18629 | 55.70615 | 19607 ft | 427 kts | 43° |
| 2026-05-07 14:41 | 24.20076 | 55.72059 | 19429 ft | 423 kts | 42° |
| 2026-05-07 14:41 | 24.22227 | 55.74201 | 19154 ft | 412 kts | 42° |
| 2026-05-07 14:42 | 24.24333 | 55.76294 | 18881 ft | 406 kts | 43° |
| 2026-05-07 14:42 | 24.27100 | 55.79042 | 18527 ft | 404 kts | 42° |
| 2026-05-07 14:42 | 24.28502 | 55.80434 | 18356 ft | 402 kts | 42° |
| 2026-05-07 14:42 | 24.30570 | 55.82489 | 18070 ft | 399 kts | 42° |
| 2026-05-07 14:43 | 24.32621 | 55.84529 | 17765 ft | 397 kts | 43° |
| 2026-05-07 14:43 | 24.34636 | 55.86534 | 17460 ft | 395 kts | 43° |
| 2026-05-07 14:43 | 24.36663 | 55.88554 | 17159 ft | 392 kts | 43° |
| 2026-05-07 14:43 | 24.38683 | 55.90565 | 16863 ft | 390 kts | 42° |
| 2026-05-07 14:44 | 24.40828 | 55.92370 | 16496 ft | 389 kts | 33° |
| 2026-05-07 14:44 | 24.43271 | 55.93640 | 16005 ft | 389 kts | 19° |
| 2026-05-07 14:44 | 24.45933 | 55.94119 | 15534 ft | 388 kts | 1° |
| 2026-05-07 14:44 | 24.48584 | 55.93671 | 15052 ft | 386 kts | 343° |
| 2026-05-07 14:45 | 24.51070 | 55.92608 | 14593 ft | 382 kts | 338° |
| 2026-05-07 14:45 | 24.53484 | 55.91429 | 14119 ft | 378 kts | 336° |
| 2026-05-07 14:45 | 24.55863 | 55.90248 | 13694 ft | 373 kts | 336° |
| 2026-05-07 14:45 | 24.58217 | 55.89084 | 13227 ft | 368 kts | 336° |
| 2026-05-07 14:46 | 24.60544 | 55.87939 | 12774 ft | 364 kts | 336° |
| 2026-05-07 14:46 | 24.62841 | 55.86812 | 12323 ft | 359 kts | 336° |
| 2026-05-07 14:46 | 24.65115 | 55.85698 | 11893 ft | 356 kts | 336° |
| 2026-05-07 14:46 | 24.67371 | 55.84594 | 11453 ft | 353 kts | 335° |
| 2026-05-07 14:47 | 24.69582 | 55.83512 | 11033 ft | 350 kts | 335° |
| 2026-05-07 14:47 | 24.71799 | 55.82428 | 10563 ft | 348 kts | 335° |
| 2026-05-07 14:47 | 24.74009 | 55.81346 | 10127 ft | 345 kts | 334° |
| 2026-05-07 14:47 | 24.76192 | 55.80276 | 9707 ft | 342 kts | 334° |
| 2026-05-07 14:48 | 24.78359 | 55.79215 | 9271 ft | 339 kts | 333° |
| 2026-05-07 14:48 | 24.80509 | 55.78160 | 8810 ft | 337 kts | 334° |
| 2026-05-07 14:48 | 24.82643 | 55.77114 | 8373 ft | 334 kts | 334° |
| 2026-05-07 14:48 | 24.84761 | 55.76074 | 7934 ft | 332 kts | 333° |
| 2026-05-07 14:49 | 24.86863 | 55.75042 | 7513 ft | 328 kts | 334° |
| 2026-05-07 14:49 | 24.88936 | 55.74025 | 7090 ft | 324 kts | 334° |
| 2026-05-07 14:49 | 24.90990 | 55.73019 | 6673 ft | 321 kts | 335° |
| 2026-05-07 14:49 | 24.92992 | 55.72035 | 6283 ft | 318 kts | 335° |
| 2026-05-07 14:50 | 24.94995 | 55.71050 | 6051 ft | 310 kts | 335° |
| 2026-05-07 14:50 | 24.96911 | 55.70109 | 6014 ft | 293 kts | 334° |
| 2026-05-07 14:50 | 24.98725 | 55.69218 | 6009 ft | 277 kts | 335° |
| 2026-05-07 14:50 | 25.00435 | 55.68378 | 5997 ft | 261 kts | 335° |
| 2026-05-07 14:51 | 25.02063 | 55.67576 | 6017 ft | 253 kts | 334° |
| 2026-05-07 14:51 | 25.03667 | 55.66785 | 6009 ft | 252 kts | 334° |
| 2026-05-07 14:51 | 25.05277 | 55.65992 | 6010 ft | 253 kts | 334° |
| 2026-05-07 14:51 | 25.06888 | 55.65200 | 5962 ft | 253 kts | 334° |
| 2026-05-07 14:52 | 25.08466 | 55.64364 | 5686 ft | 253 kts | 330° |
| 2026-05-07 14:52 | 25.09899 | 55.63278 | 5560 ft | 244 kts | 319° |
| 2026-05-07 14:52 | 25.11087 | 55.62009 | 5362 ft | 239 kts | 309° |
| 2026-05-07 14:52 | 25.12050 | 55.60520 | 5040 ft | 237 kts | 301° |
| 2026-05-07 14:53 | 25.12897 | 55.58957 | 4694 ft | 236 kts | 300° |
| 2026-05-07 14:53 | 25.13733 | 55.57409 | 4325 ft | 232 kts | 300° |
| 2026-05-07 14:53 | 25.14536 | 55.55899 | 3968 ft | 223 kts | 300° |
| 2026-05-07 14:53 | 25.15302 | 55.54463 | 3633 ft | 217 kts | 299° |
| 2026-05-07 14:54 | 25.16072 | 55.53045 | 3261 ft | 211 kts | 299° |
| 2026-05-07 14:54 | 25.16827 | 55.51683 | 2919 ft | 203 kts | 300° |
| 2026-05-07 14:54 | 25.17542 | 55.50406 | 2562 ft | 192 kts | 300° |
| 2026-05-07 14:54 | 25.18226 | 55.49184 | 2204 ft | 180 kts | 298° |
| 2026-05-07 14:55 | 25.18855 | 55.48053 | 1967 ft | 165 kts | 298° |
| 2026-05-07 14:55 | 25.19427 | 55.47017 | 1731 ft | 151 kts | 298° |
| 2026-05-07 14:55 | 25.19946 | 55.46075 | 1483 ft | 140 kts | 298° |
| 2026-05-07 14:55 | 25.20447 | 55.45171 | 1187 ft | 136 kts | 299° |
| 2026-05-07 14:56 | 25.20949 | 55.44295 | 993 ft | 136 kts | 302° |
| 2026-05-07 14:56 | 25.21444 | 55.43392 | 826 ft | 136 kts | 299° |
| 2026-05-07 14:56 | 25.21930 | 55.42499 | 652 ft | 136 kts | 298° |
| 2026-05-07 14:56 | 25.22412 | 55.41600 | 515 ft | 139 kts | 301° |
| 2026-05-07 14:57 | 25.22917 | 55.40694 | 270 ft | 137 kts | 300° |
| 2026-05-07 14:57 | 25.23414 | 55.39794 | 109 ft | 138 kts | 302° |
| 2026-05-07 14:57 | 25.23901 | 55.38920 | 27 ft | 125 kts | 301° |
| 2026-05-07 14:57 | 25.24263 | 55.38273 | 30 ft | 70 kts | 302° |
| 2026-05-07 14:58 | 25.24427 | 55.37981 | 30 ft | 32 kts | 301° |
| 2026-05-07 14:58 | 25.24537 | 55.37782 | 30 ft | 29 kts | 301° |
| 2026-05-07 14:58 | 25.24637 | 55.37595 | 30 ft | 27 kts | 301° |
| 2026-05-07 14:58 | 25.24731 | 55.37416 | 30 ft | 27 kts | 295° |
| 2026-05-07 14:59 | 25.24783 | 55.37218 | 26 ft | 27 kts | 272° |
| 2026-05-07 14:59 | 25.24785 | 55.37160 | 27 ft | 0 kts | 272° |
| 2026-05-07 14:59 | 25.24785 | 55.37144 | 29 ft | 8 kts | 272° |
| 2026-05-07 15:00 | 25.24787 | 55.37053 | 30 ft | 13 kts | 271° |
| 2026-05-07 15:00 | 25.24805 | 55.36945 | 29 ft | 16 kts | 291° |
| 2026-05-07 15:00 | 25.24856 | 55.36821 | 29 ft | 20 kts | 285° |
| 2026-05-07 15:00 | 25.24896 | 55.36660 | 30 ft | 24 kts | 295° |
| 2026-05-07 15:01 | 25.24984 | 55.36504 | 30 ft | 24 kts | 303° |
| 2026-05-07 15:01 | 25.25075 | 55.36348 | 31 ft | 24 kts | 301° |
| 2026-05-07 15:01 | 25.25162 | 55.36186 | 30 ft | 24 kts | 302° |
| 2026-05-07 15:01 | 25.25252 | 55.36026 | 28 ft | 25 kts | 302° |
| 2026-05-07 15:02 | 25.25347 | 55.35859 | 29 ft | 26 kts | 302° |
| 2026-05-07 15:02 | 25.25442 | 55.35692 | 32 ft | 26 kts | 302° |
| 2026-05-07 15:02 | 25.25540 | 55.35519 | 29 ft | 27 kts | 302° |
| 2026-05-07 15:02 | 25.25635 | 55.35344 | 30 ft | 27 kts | 301° |
| 2026-05-07 15:03 | 25.25716 | 55.35201 | 30 ft | 19 kts | 302° |
| 2026-05-07 15:03 | 25.25788 | 55.35071 | 32 ft | 22 kts | 300° |
| 2026-05-07 15:03 | 25.25856 | 55.34919 | 30 ft | 22 kts | 283° |
| 2026-05-07 15:03 | 25.25861 | 55.34779 | 27 ft | 13 kts | 276° |
| 2026-05-07 15:04 | 25.25899 | 55.34685 | 29 ft | 14 kts | 304° |
| 2026-05-07 15:04 | 25.25914 | 55.34623 | 30 ft | 4 kts | 245° |
| 2026-05-07 15:04 | 25.25899 | 55.34608 | 30 ft | 2 kts | 215° |
| 2026-05-07 15:04 | 25.25878 | 55.34593 | 30 ft | 5 kts | 213° |
| 2026-05-07 15:05 | 25.25861 | 55.34580 | 28 ft | 3 kts | 212° |
| 2026-05-07 15:05 | 25.25851 | 55.34574 | 30 ft | 0 kts | 212° |